Mauston, WI (53948)

12:46 PM CDT die 28o April, anno 2017 (GMT -0500)
Juneau County Weather | | Change Station

Elev 873 ft 43.80 °N, 90.07 °W | Updated 0 second ago

Partialiter Nubila
Partialiter Nubila
48.1 °F
Feels Like 46 °F
N
5.2
Ventus Variabilis Ventus from Magis Auster quam Eurus
Gusts 6.0 mph

Hodie
High -- | Low -- °F
--% Chance of Precip.
Yesterday
High -- | Low -- °F
Precip. -- in
Pressio 29.94 in
Visibilitas 10.0 milia passuum
Clouds Few 3300 ft
Nubes Dispersae 15000 ft
Plerumque Nubila 20000 ft
Frigus Venti 46 °F
Frigus in quo Ros apparet 35 °F
Umor 60%
Rainfall 0.00 in
Snow Depth Not available.
5:56 AM 7:59 PM
Waxing Crescent, 7% visible
METAR KVOK 281658Z 28006KT 10SM FEW033 SCT150 BKN200 08/00 A2991 RMK AO2A SLP138
Pressio 29.94 in
Visibilitas 10.0 milia passuum
Clouds Few 3300 ft
Nubes Dispersae 15000 ft
Plerumque Nubila 20000 ft
Frigus Venti 46 °F
Frigus in quo Ros apparet 35 °F
Umor 60%
Rainfall 0.00 in
Snow Depth Not available.
5:56 AM 7:59 PM
Waxing Crescent, 7% visible
METAR KVOK 281658Z 28006KT 10SM FEW033 SCT150 BKN200 08/00 A2991 RMK AO2A SLP138

Get Severe Weather Alerts

Thanks for signing up!

Be on the lookout for a verification email in your inbox.

You'll start receiving the daily forecast at 8 AM.

×

10-Day Weather Forecast

Almanac

Astronomy

Apr. 28, 2017 Rise Set
Actual Time
Civil Twilight
Nautical Twilight
Astronomical Twilight
Moon
Length Of Visible Light
Length of Day
Tomorrow will be .
, % of the Moon is Illuminated

Today's Extremes

State Highs State Lows

Community

WunderPhotos

WunderBlog® & News

Nearby

Air Quality

  Air Quality AQ Index Pollutant
Not available.

Snow Depth

Station Depth Elevation

Earthquake Activity

City Distance Mag. Time & Date
Minimum magnitude displayed is 2.5.

Coastal Water Temperatures

Locus Calor

Stations

Nearby Weather Stations

Station Location Temp Frigus Venti Frigus in quo Ros apparet Umor Ventus Precip. Elev Renovata Type
                   

Watches & Warnings

There are currently no watches in effect.